createdAt,value
2022-12-29T00:00:21.632Z,6.32
2022-12-29T00:02:49.954Z,6.30
2022-12-29T00:05:17.539Z,6.31
2022-12-29T00:07:44.793Z,6.30
2022-12-29T00:10:12.015Z,6.29
2022-12-29T00:12:57.877Z,6.24
2022-12-29T00:15:40.567Z,6.27
2022-12-29T00:18:09.104Z,6.25
2022-12-29T00:20:56.607Z,6.22
2022-12-29T00:23:43.006Z,6.18
2022-12-29T00:26:38.073Z,6.17
2022-12-29T00:29:24.035Z,6.20
2022-12-29T00:32:10.010Z,6.15
2022-12-29T00:34:55.724Z,6.04
2022-12-29T00:37:43.110Z,6.09
2022-12-29T00:40:29.309Z,6.10
2022-12-29T00:43:14.723Z,6.12
2022-12-29T00:45:44.932Z,6.10
2022-12-29T00:48:12.117Z,6.09
2022-12-29T00:50:39.295Z,6.10
2022-12-29T00:53:06.450Z,6.02
2022-12-29T00:55:39.108Z,5.99
2022-12-29T00:58:06.332Z,5.99
2022-12-29T01:00:34.561Z,5.96
2022-12-29T01:03:02.648Z,5.95
2022-12-29T01:05:29.915Z,5.96
2022-12-29T01:07:57.052Z,5.99
2022-12-29T01:10:25.023Z,5.97
2022-12-29T01:12:53.713Z,5.97
2022-12-29T01:15:21.456Z,5.95
2022-12-29T01:17:49.455Z,5.93
2022-12-29T01:20:17.066Z,5.97
2022-12-29T01:22:44.744Z,6.02
2022-12-29T01:25:11.947Z,6.03
2022-12-29T01:27:39.364Z,6.00
2022-12-29T01:30:07.815Z,5.99
2022-12-29T01:32:35.152Z,6.06
2022-12-29T01:35:02.481Z,6.09
2022-12-29T01:37:29.646Z,6.10
2022-12-29T01:39:57.477Z,6.11
2022-12-29T01:42:29.042Z,6.10
2022-12-29T01:45:14.575Z,6.06
2022-12-29T01:47:57.305Z,6.06
2022-12-29T01:50:42.578Z,6.03
2022-12-29T01:53:29.210Z,6.05
2022-12-29T01:56:03.624Z,6.08
2022-12-29T01:58:39.982Z,6.08
2022-12-29T02:01:07.934Z,6.09
2022-12-29T02:03:37.479Z,6.12
2022-12-29T02:06:19.836Z,6.10
2022-12-29T02:08:51.138Z,6.09
2022-12-29T02:11:19.320Z,6.11
2022-12-29T02:13:46.692Z,6.13
2022-12-29T02:16:38.220Z,6.12
2022-12-29T02:19:54.669Z,6.10
2022-12-29T02:23:07.061Z,6.10
2022-12-29T02:26:06.165Z,6.07
2022-12-29T02:28:46.944Z,6.02
2022-12-29T02:32:06.967Z,6.02
2022-12-29T02:35:06.688Z,5.94
2022-12-29T02:38:16.751Z,5.93
2022-12-29T02:40:55.009Z,5.93
2022-12-29T02:43:55.881Z,5.97
2022-12-29T02:46:53.119Z,5.93
2022-12-29T02:49:34.122Z,5.89
2022-12-29T02:52:33.477Z,5.91
2022-12-29T02:55:00.832Z,5.96
2022-12-29T02:57:34.431Z,5.97
2022-12-29T03:00:12.346Z,5.94
2022-12-29T03:03:07.851Z,5.94
2022-12-29T03:06:09.945Z,5.94
2022-12-29T03:08:49.023Z,5.97
2022-12-29T03:11:37.486Z,5.99
2022-12-29T03:14:43.856Z,6.03
2022-12-29T03:17:30.931Z,6.05
2022-12-29T03:20:09.459Z,6.04
2022-12-29T03:22:48.200Z,6.06
2022-12-29T03:25:35.027Z,6.10
2022-12-29T03:28:36.862Z,6.06
2022-12-29T03:31:05.858Z,5.98
2022-12-29T03:33:36.526Z,6.02
2022-12-29T03:36:09.701Z,6.02
2022-12-29T03:39:13.152Z,5.99
2022-12-29T03:41:45.548Z,5.96
2022-12-29T03:44:14.235Z,6.02
2022-12-29T03:46:41.725Z,6.03
2022-12-29T03:49:09.513Z,6.05
2022-12-29T03:51:36.851Z,6.06
2022-12-29T03:54:06.321Z,6.03
2022-12-29T03:56:34.057Z,5.99
2022-12-29T03:59:03.190Z,5.98
2022-12-29T04:01:35.341Z,5.98
2022-12-29T04:04:03.206Z,5.96
2022-12-29T04:06:30.555Z,6.00
2022-12-29T04:09:07.473Z,6.06
2022-12-29T04:11:40.037Z,6.03
2022-12-29T04:14:07.607Z,6.03
2022-12-29T04:16:36.824Z,6.00
2022-12-29T04:19:08.201Z,5.98
2022-12-29T04:21:36.636Z,6.00
2022-12-29T04:24:07.625Z,5.95
2022-12-29T04:26:39.397Z,5.98
2022-12-29T04:29:35.957Z,5.94
2022-12-29T04:32:13.027Z,5.93
2022-12-29T04:34:45.902Z,5.97
2022-12-29T04:37:13.193Z,5.99
2022-12-29T04:39:40.459Z,5.94
2022-12-29T04:42:08.857Z,5.93
2022-12-29T04:44:41.320Z,5.96
2022-12-29T04:47:15.748Z,5.95
2022-12-29T04:49:53.344Z,5.92
2022-12-29T04:52:39.403Z,5.84
2022-12-29T04:55:09.552Z,5.83
2022-12-29T04:57:36.898Z,5.84
2022-12-29T05:00:06.054Z,5.82
2022-12-29T05:02:33.467Z,5.78
2022-12-29T05:05:01.348Z,5.76
2022-12-29T05:07:29.364Z,5.76
2022-12-29T05:09:57.051Z,5.78
2022-12-29T05:12:24.176Z,5.83
2022-12-29T05:15:00.523Z,5.82
2022-12-29T05:17:28.146Z,5.82
2022-12-29T05:19:56.251Z,5.85
2022-12-29T05:22:24.038Z,5.85
2022-12-29T05:24:51.505Z,5.86
2022-12-29T05:27:18.906Z,5.82
2022-12-29T05:30:11.461Z,5.81
2022-12-29T05:32:38.696Z,5.80
2022-12-29T05:35:06.893Z,5.80
2022-12-29T05:37:35.173Z,5.79
2022-12-29T05:40:04.189Z,5.79
2022-12-29T05:42:31.507Z,5.80
2022-12-29T05:45:20.814Z,5.78
2022-12-29T05:48:06.366Z,5.74
2022-12-29T05:51:08.938Z,5.68
2022-12-29T05:54:02.060Z,5.67
2022-12-29T05:56:29.461Z,5.70
2022-12-29T05:58:59.237Z,5.67
2022-12-29T06:01:26.732Z,5.68
2022-12-29T06:03:55.398Z,5.69
2022-12-29T06:06:22.854Z,5.69
2022-12-29T06:08:50.093Z,5.74
2022-12-29T06:11:18.096Z,5.73
2022-12-29T06:13:51.540Z,5.70
2022-12-29T06:16:18.781Z,5.71
2022-12-29T06:18:47.032Z,5.70
2022-12-29T06:21:14.479Z,5.67
2022-12-29T06:23:41.811Z,5.73
2022-12-29T06:26:09.032Z,5.73
2022-12-29T06:28:36.247Z,5.70
2022-12-29T06:31:03.864Z,5.69
2022-12-29T06:33:31.465Z,5.75
2022-12-29T06:35:58.799Z,5.80
2022-12-29T06:38:28.453Z,5.82
2022-12-29T06:40:55.793Z,5.77
2022-12-29T06:43:45.542Z,5.79
2022-12-29T06:46:21.827Z,5.79
2022-12-29T06:48:49.041Z,5.80
2022-12-29T06:51:16.335Z,5.80
2022-12-29T06:53:44.706Z,5.82
2022-12-29T06:56:11.839Z,5.88
2022-12-29T06:58:38.970Z,5.91
2022-12-29T07:01:06.275Z,5.93
2022-12-29T07:03:33.638Z,5.89
2022-12-29T07:06:01.023Z,5.89
2022-12-29T07:08:28.352Z,5.91
2022-12-29T07:10:55.462Z,5.89
2022-12-29T07:13:22.618Z,5.90
2022-12-29T07:15:49.811Z,5.90
2022-12-29T07:18:16.979Z,5.92
2022-12-29T07:20:44.456Z,5.94
2022-12-29T07:23:11.884Z,5.96
2022-12-29T07:25:41.315Z,5.98
2022-12-29T07:28:08.654Z,5.96
2022-12-29T07:30:39.171Z,5.95
2022-12-29T07:33:06.372Z,5.96
2022-12-29T07:35:35.728Z,5.99
2022-12-29T07:38:02.895Z,6.00
2022-12-29T07:40:30.046Z,5.99
2022-12-29T07:42:57.486Z,6.03
2022-12-29T07:45:34.168Z,6.03
2022-12-29T07:48:09.383Z,6.02
2022-12-29T07:50:37.672Z,6.04
2022-12-29T07:53:05.119Z,6.08
2022-12-29T07:55:32.419Z,6.09
2022-12-29T07:57:59.805Z,6.16
2022-12-29T08:00:27.265Z,6.18
2022-12-29T08:02:54.731Z,6.15
2022-12-29T08:05:22.359Z,6.15
2022-12-29T08:07:49.565Z,6.16
2022-12-29T08:10:17.745Z,6.15
2022-12-29T08:12:45.130Z,6.19
2022-12-29T08:15:13.244Z,6.22
2022-12-29T08:17:40.545Z,6.19
2022-12-29T08:20:09.143Z,6.21
2022-12-29T08:22:36.719Z,6.20
2022-12-29T08:25:05.019Z,6.23
2022-12-29T08:27:32.197Z,6.24
2022-12-29T08:30:01.364Z,6.24
2022-12-29T08:32:29.401Z,6.20
2022-12-29T08:34:56.648Z,6.25
2022-12-29T08:37:29.248Z,6.24
2022-12-29T08:39:59.647Z,6.24
2022-12-29T08:42:31.836Z,6.29
2022-12-29T08:45:00.415Z,6.29
2022-12-29T08:47:28.272Z,6.31
2022-12-29T08:49:55.523Z,6.36
2022-12-29T08:52:22.815Z,6.39
2022-12-29T08:54:51.392Z,6.39
2022-12-29T08:57:18.647Z,6.40
2022-12-29T08:59:58.096Z,6.46
2022-12-29T09:02:25.397Z,6.53
2022-12-29T09:04:52.854Z,6.54
2022-12-29T09:07:20.146Z,6.58
2022-12-29T09:09:48.972Z,6.66
2022-12-29T09:12:18.408Z,6.70
2022-12-29T09:14:47.847Z,6.79
2022-12-29T09:17:33.659Z,6.88
2022-12-29T09:20:00.948Z,6.90
2022-12-29T09:22:28.093Z,6.86
2022-12-29T09:24:55.269Z,6.72
2022-12-29T09:27:22.461Z,6.73
2022-12-29T09:29:49.618Z,6.81
2022-12-29T09:32:18.698Z,6.88
2022-12-29T09:34:46.490Z,6.97
2022-12-29T09:37:13.752Z,6.97
2022-12-29T09:39:41.621Z,6.98
2022-12-29T09:42:34.071Z,6.93
2022-12-29T09:45:19.665Z,6.85
2022-12-29T09:47:47.544Z,6.84
2022-12-29T09:50:31.283Z,6.83
2022-12-29T09:53:31.104Z,6.74
2022-12-29T09:56:02.455Z,6.73
2022-12-29T09:59:14.235Z,6.85
2022-12-29T10:02:07.508Z,6.93
2022-12-29T10:04:35.180Z,7.01
2022-12-29T10:07:34.191Z,7.08
2022-12-29T10:10:51.248Z,7.06
2022-12-29T10:13:54.716Z,7.14
2022-12-29T10:16:44.252Z,7.27
2022-12-29T10:20:02.496Z,7.44
2022-12-29T10:23:09.634Z,7.67
2022-12-29T10:25:42.504Z,7.71
2022-12-29T10:28:31.763Z,7.74
2022-12-29T10:31:06.762Z,7.81
2022-12-29T10:33:42.716Z,7.89
2022-12-29T10:36:25.539Z,8.16
2022-12-29T10:39:27.559Z,8.08
2022-12-29T10:42:28.567Z,8.06
2022-12-29T10:44:57.294Z,7.94
2022-12-29T10:47:36.236Z,7.86
2022-12-29T10:50:05.978Z,7.74
2022-12-29T10:52:36.030Z,7.74
2022-12-29T10:55:22.370Z,7.61
2022-12-29T10:57:50.557Z,7.69
2022-12-29T11:00:23.189Z,7.86
2022-12-29T11:03:25.587Z,7.84
2022-12-29T11:06:22.228Z,7.84
2022-12-29T11:09:41.392Z,7.76
2022-12-29T11:12:29.107Z,7.69
2022-12-29T11:15:17.196Z,7.65
2022-12-29T11:17:52.011Z,7.72
2022-12-29T11:20:36.520Z,7.79
2022-12-29T11:23:22.317Z,7.81
2022-12-29T11:26:21.127Z,7.76
2022-12-29T11:29:21.534Z,7.68
2022-12-29T11:31:51.191Z,7.61
2022-12-29T11:34:27.796Z,7.61
2022-12-29T11:37:07.230Z,7.59
2022-12-29T11:40:09.159Z,7.64
2022-12-29T11:42:58.321Z,7.66
2022-12-29T11:45:28.023Z,7.62
2022-12-29T11:48:08.979Z,7.50
2022-12-29T11:50:42.663Z,7.67
2022-12-29T11:53:40.970Z,7.91
2022-12-29T11:56:15.133Z,8.03
2022-12-29T11:58:42.871Z,8.09
2022-12-29T12:01:38.417Z,8.17
2022-12-29T12:04:17.730Z,8.15
2022-12-29T12:07:25.438Z,8.26
2022-12-29T12:10:07.421Z,8.26
2022-12-29T12:13:05.981Z,8.12
2022-12-29T12:16:03.470Z,8.05
2022-12-29T12:19:02.286Z,8.01
2022-12-29T12:21:45.101Z,7.86
2022-12-29T12:25:02.963Z,7.83
2022-12-29T12:27:43.003Z,7.87
2022-12-29T12:30:20.576Z,7.84
2022-12-29T12:33:14.869Z,7.84
2022-12-29T12:36:33.262Z,7.83
2022-12-29T12:39:19.938Z,7.89
2022-12-29T12:42:33.513Z,7.88
2022-12-29T12:45:56.497Z,7.93
2022-12-29T12:49:18.022Z,7.97
2022-12-29T12:52:30.820Z,8.00
2022-12-29T12:55:40.704Z,7.89
2022-12-29T12:58:47.049Z,7.88
2022-12-29T13:01:42.463Z,7.89
2022-12-29T13:04:56.063Z,7.93
2022-12-29T13:07:37.894Z,7.99
2022-12-29T13:11:06.204Z,7.94
2022-12-29T13:14:24.881Z,7.91
2022-12-29T13:17:27.510Z,7.77
2022-12-29T13:20:50.373Z,7.90
2022-12-29T13:24:20.543Z,7.96
2022-12-29T13:27:24.833Z,8.05
2022-12-29T13:30:17.360Z,8.06
2022-12-29T13:33:35.379Z,8.16
2022-12-29T13:36:46.602Z,8.18
2022-12-29T13:39:57.501Z,8.11
2022-12-29T13:42:26.632Z,8.04
2022-12-29T13:45:16.144Z,8.15
2022-12-29T13:47:50.656Z,8.15
2022-12-29T13:50:27.355Z,8.13
2022-12-29T13:53:31.559Z,8.12
2022-12-29T13:56:25.293Z,8.15
2022-12-29T13:59:43.780Z,8.08
2022-12-29T14:02:38.760Z,7.94
2022-12-29T14:05:33.290Z,7.84
2022-12-29T14:08:06.967Z,7.84
2022-12-29T14:10:48.372Z,7.81
2022-12-29T14:13:20.986Z,7.80
2022-12-29T14:15:58.935Z,7.83
2022-12-29T14:18:34.201Z,7.88
2022-12-29T14:21:17.032Z,7.84
2022-12-29T14:23:54.820Z,7.89
2022-12-29T14:26:31.041Z,7.86
2022-12-29T14:29:36.569Z,7.80
2022-12-29T14:32:26.608Z,7.71
2022-12-29T14:34:56.216Z,7.62
2022-12-29T14:37:34.479Z,7.58
2022-12-29T14:40:27.124Z,7.51
2022-12-29T14:42:58.038Z,7.45
2022-12-29T14:45:31.554Z,7.47
2022-12-29T14:48:00.169Z,7.43
2022-12-29T14:50:44.052Z,7.49
2022-12-29T14:53:51.835Z,7.50
2022-12-29T14:56:26.230Z,7.54
2022-12-29T14:59:11.355Z,7.53
2022-12-29T15:01:50.029Z,7.47
2022-12-29T15:04:31.973Z,7.44
2022-12-29T15:07:04.277Z,7.43
2022-12-29T15:09:37.386Z,7.43
2022-12-29T15:12:42.691Z,7.36
2022-12-29T15:15:27.978Z,7.33
2022-12-29T15:17:55.496Z,7.33
2022-12-29T15:20:32.568Z,7.33
2022-12-29T15:23:12.113Z,7.32
2022-12-29T15:26:03.911Z,7.31
2022-12-29T15:28:46.122Z,7.30
2022-12-29T15:31:28.013Z,7.27
2022-12-29T15:34:13.353Z,7.26
2022-12-29T15:36:42.348Z,7.21
2022-12-29T15:39:30.628Z,7.19
2022-12-29T15:42:12.064Z,7.20
2022-12-29T15:44:44.020Z,7.17
2022-12-29T15:47:19.424Z,7.13
2022-12-29T15:50:28.162Z,7.12
2022-12-29T15:52:56.941Z,7.10
2022-12-29T15:55:50.666Z,7.11
2022-12-29T15:58:29.215Z,7.08
2022-12-29T16:01:02.649Z,7.04
2022-12-29T16:03:35.491Z,7.03
2022-12-29T16:06:30.611Z,7.03
2022-12-29T16:09:01.051Z,7.02
2022-12-29T16:11:38.289Z,7.02
2022-12-29T16:14:22.541Z,7.02
2022-12-29T16:16:51.494Z,7.01
2022-12-29T16:19:37.821Z,6.97
2022-12-29T16:22:16.666Z,6.94
2022-12-29T16:24:43.953Z,6.95
2022-12-29T16:27:29.312Z,6.96
2022-12-29T16:29:56.688Z,6.95
2022-12-29T16:32:29.234Z,6.93
2022-12-29T16:35:27.897Z,6.93
2022-12-29T16:38:24.842Z,6.88
2022-12-29T16:41:04.568Z,6.89
2022-12-29T16:43:42.769Z,6.89
2022-12-29T16:47:11.819Z,6.88
2022-12-29T16:49:48.712Z,6.84
2022-12-29T16:52:34.678Z,6.83
2022-12-29T16:55:02.270Z,6.82
2022-12-29T16:57:37.581Z,6.85
2022-12-29T17:00:09.314Z,6.85
2022-12-29T17:02:45.651Z,6.81
2022-12-29T17:05:19.142Z,6.81
2022-12-29T17:07:47.366Z,6.78
2022-12-29T17:10:15.725Z,6.78
2022-12-29T17:12:47.023Z,6.76
2022-12-29T17:15:35.042Z,6.74
2022-12-29T17:18:02.434Z,6.72
2022-12-29T17:20:32.199Z,6.64
2022-12-29T17:23:00.291Z,6.61
2022-12-29T17:25:36.621Z,6.59
2022-12-29T17:28:27.498Z,6.60
2022-12-29T17:31:03.568Z,6.58
2022-12-29T17:33:38.613Z,6.54
2022-12-29T17:36:06.413Z,6.55
2022-12-29T17:38:37.471Z,6.60
2022-12-29T17:41:05.015Z,6.60
2022-12-29T17:43:37.094Z,6.61
2022-12-29T17:46:08.203Z,6.60
2022-12-29T17:48:35.866Z,6.56
2022-12-29T17:51:03.435Z,6.52
2022-12-29T17:53:31.390Z,6.56
2022-12-29T17:55:58.625Z,6.57
2022-12-29T17:58:31.665Z,6.59
2022-12-29T18:01:02.431Z,6.54
2022-12-29T18:03:34.485Z,6.54
2022-12-29T18:06:06.464Z,6.54
2022-12-29T18:08:36.200Z,6.60
2022-12-29T18:11:04.136Z,6.63
2022-12-29T18:13:45.619Z,6.64
2022-12-29T18:16:14.729Z,6.63
2022-12-29T18:18:42.206Z,6.63
2022-12-29T18:21:22.172Z,6.68
2022-12-29T18:23:50.623Z,6.68
2022-12-29T18:26:31.451Z,6.70
2022-12-29T18:28:59.540Z,6.68
2022-12-29T18:31:31.553Z,6.67
2022-12-29T18:34:02.237Z,6.71
2022-12-29T18:36:29.716Z,6.69
2022-12-29T18:38:57.077Z,6.70
2022-12-29T18:41:29.645Z,6.71
2022-12-29T18:43:58.140Z,6.70
2022-12-29T18:46:25.775Z,6.71
2022-12-29T18:48:54.454Z,6.73
2022-12-29T18:51:26.260Z,6.74
2022-12-29T18:53:54.555Z,6.74
2022-12-29T18:56:23.622Z,6.76
2022-12-29T18:58:51.492Z,6.71
2022-12-29T19:01:27.922Z,6.72
2022-12-29T19:03:55.865Z,6.74
2022-12-29T19:06:23.277Z,6.73
2022-12-29T19:08:50.501Z,6.72
2022-12-29T19:11:17.920Z,6.73
2022-12-29T19:13:45.180Z,6.74
2022-12-29T19:16:22.198Z,6.73
2022-12-29T19:19:07.664Z,6.74
2022-12-29T19:21:37.070Z,6.71
2022-12-29T19:24:04.945Z,6.73
2022-12-29T19:26:38.003Z,6.77
2022-12-29T19:29:15.559Z,6.77
2022-12-29T19:31:43.042Z,6.79
2022-12-29T19:34:15.121Z,6.80
2022-12-29T19:36:44.642Z,6.77
2022-12-29T19:39:12.831Z,6.77
2022-12-29T19:41:40.025Z,6.71
2022-12-29T19:44:08.332Z,6.68
2022-12-29T19:46:35.569Z,6.70
2022-12-29T19:49:02.832Z,6.67
2022-12-29T19:51:30.032Z,6.71
2022-12-29T19:53:58.401Z,6.70
2022-12-29T19:56:25.739Z,6.70
2022-12-29T19:58:53.007Z,6.70
2022-12-29T20:01:23.293Z,6.72
2022-12-29T20:03:51.829Z,6.75
2022-12-29T20:06:19.712Z,6.74
2022-12-29T20:08:47.086Z,6.72
2022-12-29T20:11:18.478Z,6.71
2022-12-29T20:13:46.965Z,6.71
2022-12-29T20:16:19.137Z,6.68
2022-12-29T20:18:48.211Z,6.67
2022-12-29T20:21:20.388Z,6.64
2022-12-29T20:23:51.042Z,6.65
2022-12-29T20:26:24.783Z,6.65
2022-12-29T20:28:53.330Z,6.65
2022-12-29T20:31:36.126Z,6.62
2022-12-29T20:34:09.519Z,6.57
2022-12-29T20:36:42.408Z,6.56
2022-12-29T20:39:18.238Z,6.54
2022-12-29T20:41:47.402Z,6.52
2022-12-29T20:44:14.636Z,6.56
2022-12-29T20:46:44.115Z,6.53
2022-12-29T20:49:12.036Z,6.52
2022-12-29T20:52:05.102Z,6.50
2022-12-29T20:54:26.696Z,6.52
2022-12-29T20:56:53.950Z,6.55
2022-12-29T20:59:29.229Z,6.53
2022-12-29T21:01:58.196Z,6.53
2022-12-29T21:04:26.504Z,6.55
2022-12-29T21:06:54.194Z,6.54
2022-12-29T21:09:21.639Z,6.56
2022-12-29T21:11:49.190Z,6.58
2022-12-29T21:14:16.609Z,6.56
2022-12-29T21:16:43.888Z,6.59
2022-12-29T21:19:11.264Z,6.59
2022-12-29T21:21:38.469Z,6.61
2022-12-29T21:24:07.326Z,6.59
2022-12-29T21:26:34.595Z,6.61
2022-12-29T21:29:03.432Z,6.63
2022-12-29T21:31:34.886Z,6.61
2022-12-29T21:34:05.558Z,6.60
2022-12-29T21:36:33.520Z,6.59
2022-12-29T21:39:03.293Z,6.61
2022-12-29T21:41:31.606Z,6.60
2022-12-29T21:44:18.198Z,6.58
2022-12-29T21:46:47.957Z,6.58
2022-12-29T21:49:16.021Z,6.57
2022-12-29T21:51:55.831Z,6.58
2022-12-29T21:54:46.075Z,6.56
2022-12-29T21:57:37.106Z,6.56
2022-12-29T22:00:27.545Z,6.54
2022-12-29T22:03:22.063Z,6.51
2022-12-29T22:06:10.023Z,6.49
2022-12-29T22:08:57.125Z,6.53
2022-12-29T22:11:43.033Z,6.51
2022-12-29T22:14:10.481Z,6.50
2022-12-29T22:16:37.736Z,6.43
2022-12-29T22:19:05.191Z,6.38
2022-12-29T22:21:32.393Z,6.30
2022-12-29T22:24:00.562Z,6.26
2022-12-29T22:26:27.755Z,6.19
2022-12-29T22:28:55.179Z,6.16
2022-12-29T22:31:28.879Z,6.09
2022-12-29T22:34:00.992Z,6.08
2022-12-29T22:36:28.984Z,6.07
2022-12-29T22:38:56.270Z,6.10
2022-12-29T22:41:24.309Z,6.11
2022-12-29T22:43:51.607Z,6.06
2022-12-29T22:46:19.285Z,6.00
2022-12-29T22:48:46.881Z,6.00
2022-12-29T22:51:14.305Z,6.00
2022-12-29T22:53:41.570Z,6.03
2022-12-29T22:56:13.604Z,6.00
2022-12-29T22:58:44.340Z,6.03
2022-12-29T23:01:15.833Z,6.00
2022-12-29T23:03:44.610Z,5.96
2022-12-29T23:06:15.987Z,5.99
2022-12-29T23:08:44.459Z,5.97
2022-12-29T23:11:13.026Z,5.96
2022-12-29T23:13:42.107Z,5.95
2022-12-29T23:16:09.311Z,5.90
2022-12-29T23:18:36.943Z,5.91
2022-12-29T23:21:05.069Z,5.91
2022-12-29T23:23:50.833Z,5.91
2022-12-29T23:26:41.543Z,5.92
2022-12-29T23:29:14.017Z,5.91
2022-12-29T23:31:42.210Z,5.92
2022-12-29T23:34:12.265Z,5.90
2022-12-29T23:36:40.727Z,5.94
2022-12-29T23:39:08.826Z,5.96
2022-12-29T23:41:36.192Z,5.96
2022-12-29T23:44:03.724Z,5.99
2022-12-29T23:46:31.367Z,5.96
2022-12-29T23:48:58.838Z,5.96
2022-12-29T23:51:26.405Z,6.00
2022-12-29T23:53:53.662Z,5.93
2022-12-29T23:56:23.550Z,5.92
2022-12-29T23:58:51.892Z,5.94
